createdAt,value
2019-05-21T00:02:11.539Z,41.50
2019-05-21T00:04:40.588Z,44.27
2019-05-21T00:07:11.966Z,42.40
2019-05-21T00:09:39.459Z,45.40
2019-05-21T00:12:07.018Z,43.50
2019-05-21T00:14:34.858Z,44.50
2019-05-21T00:17:02.673Z,42.97
2019-05-21T00:19:30.539Z,44.73
2019-05-21T00:21:58.008Z,39.77
2019-05-21T00:24:25.432Z,42.63
2019-05-21T00:26:53.007Z,42.90
2019-05-21T00:29:57.479Z,41.70
2019-05-21T00:33:01.688Z,40.87
2019-05-21T00:36:05.914Z,45.80
2019-05-21T00:39:10.368Z,42.03
2019-05-21T00:42:01.523Z,42.43
2019-05-21T00:44:35.021Z,43.03
2019-05-21T00:47:03.375Z,42.30
2019-05-21T00:49:30.981Z,41.30
2019-05-21T00:52:06.857Z,40.07
2019-05-21T00:54:28.009Z,42.90
2019-05-21T00:56:55.595Z,42.93
2019-05-21T00:59:23.056Z,39.53
2019-05-21T01:01:50.522Z,40.80
2019-05-21T01:04:18.382Z,39.47
2019-05-21T01:06:45.925Z,46.17
2019-05-21T01:09:13.557Z,40.73
2019-05-21T01:11:41.677Z,45.17
2019-05-21T01:14:09.364Z,40.50
2019-05-21T01:16:36.993Z,43.60
2019-05-21T01:19:04.680Z,40.60
2019-05-21T01:21:32.354Z,44.00
2019-05-21T01:24:02.777Z,45.07
2019-05-21T01:26:30.807Z,46.43
2019-05-21T01:28:58.404Z,48.43
2019-05-21T01:31:25.982Z,48.17
2019-05-21T01:33:54.682Z,44.93
2019-05-21T01:39:13.593Z,45.80
2019-05-21T01:41:41.856Z,46.17
2019-05-21T01:44:09.460Z,46.20
2019-05-21T01:46:37.001Z,49.97
2019-05-21T01:49:04.641Z,45.93
2019-05-21T01:51:32.206Z,51.27
2019-05-21T01:53:59.726Z,50.27
2019-05-21T01:56:27.312Z,46.97
2019-05-21T01:58:56.101Z,48.50
2019-05-21T02:01:23.626Z,50.43
2019-05-21T02:03:51.072Z,48.40
2019-05-21T02:06:18.803Z,49.37
2019-05-21T02:08:46.401Z,52.17
2019-05-21T02:11:14.518Z,48.70
2019-05-21T02:13:42.415Z,47.30
2019-05-21T02:16:10.042Z,49.40
2019-05-21T02:18:37.975Z,47.00
2019-05-21T02:21:05.478Z,48.67
2019-05-21T02:23:33.111Z,48.80
2019-05-21T02:26:00.804Z,55.83
2019-05-21T02:28:28.615Z,49.17
2019-05-21T02:30:57.050Z,46.60
2019-05-21T02:33:24.791Z,49.40
2019-05-21T02:35:54.633Z,48.20
2019-05-21T02:38:21.576Z,46.97
2019-05-21T02:40:49.228Z,45.70
2019-05-21T02:43:16.811Z,52.80
2019-05-21T02:45:44.792Z,50.67
2019-05-21T02:48:12.358Z,47.10
2019-05-21T02:50:39.873Z,44.90
2019-05-21T02:53:08.899Z,47.07
2019-05-21T02:55:36.443Z,45.40
2019-05-21T02:58:04.248Z,53.67
2019-05-21T03:00:39.475Z,46.67
2019-05-21T03:03:07.643Z,47.00
2019-05-21T03:05:35.230Z,46.37
2019-05-21T03:08:02.874Z,43.33
2019-05-21T03:10:31.641Z,42.90
2019-05-21T03:12:59.240Z,43.30
2019-05-21T03:15:26.753Z,45.20
2019-05-21T03:17:54.485Z,46.63
2019-05-21T03:20:22.121Z,42.27
2019-05-21T03:22:49.805Z,41.77
2019-05-21T03:25:18.876Z,41.23
2019-05-21T03:27:46.428Z,38.53
2019-05-21T03:30:15.176Z,37.90
2019-05-21T03:32:42.742Z,44.83
2019-05-21T03:35:10.651Z,38.63
2019-05-21T03:37:38.203Z,39.07
2019-05-21T03:40:07.989Z,38.23
2019-05-21T03:42:35.667Z,41.90
2019-05-21T03:45:07.970Z,38.37
2019-05-21T03:47:34.763Z,38.63
2019-05-21T03:50:03.047Z,36.80
2019-05-21T03:52:30.966Z,35.97
2019-05-21T03:55:02.872Z,37.83
2019-05-21T03:57:29.385Z,40.10
2019-05-21T03:59:57.122Z,31.97
2019-05-21T04:02:24.766Z,34.13
2019-05-21T04:04:52.500Z,35.47
2019-05-21T04:07:21.003Z,33.80
2019-05-21T04:09:49.331Z,32.43
2019-05-21T04:12:17.227Z,32.27
2019-05-21T04:14:50.006Z,27.87
2019-05-21T04:17:43.575Z,28.43
2019-05-21T04:20:11.720Z,29.77
2019-05-21T04:22:51.822Z,26.27
2019-05-21T04:25:23.660Z,27.93
2019-05-21T04:27:51.315Z,26.40
2019-05-21T04:30:22.446Z,25.23
2019-05-21T04:32:50.268Z,23.10
2019-05-21T04:35:18.313Z,24.87
2019-05-21T04:37:45.871Z,22.87
2019-05-21T04:40:13.522Z,28.03
2019-05-21T04:42:41.147Z,21.77
2019-05-21T04:45:09.626Z,25.17
2019-05-21T04:47:37.433Z,21.57
2019-05-21T04:50:05.419Z,23.17
2019-05-21T04:52:33.051Z,23.50
2019-05-21T04:55:01.734Z,22.70
2019-05-21T04:57:29.384Z,26.13
2019-05-21T04:59:57.136Z,27.63
2019-05-21T05:02:24.826Z,26.03
2019-05-21T05:04:52.472Z,24.93
2019-05-21T05:07:28.183Z,25.23
2019-05-21T05:09:53.009Z,28.93
2019-05-21T05:12:20.555Z,26.00
2019-05-21T05:14:48.191Z,27.67
2019-05-21T05:17:15.966Z,24.70
2019-05-21T05:19:44.039Z,29.47
2019-05-21T05:22:11.846Z,24.73
2019-05-21T05:24:39.625Z,30.47
2019-05-21T05:27:10.068Z,30.70
2019-05-21T05:29:39.674Z,28.87
2019-05-21T05:32:08.006Z,28.67
2019-05-21T05:34:35.622Z,28.10
2019-05-21T05:37:03.351Z,30.23
2019-05-21T05:39:31.163Z,32.27
2019-05-21T05:41:59.042Z,31.37
2019-05-21T05:47:42.166Z,30.40
2019-05-21T05:50:12.787Z,33.33
2019-05-21T05:52:40.230Z,34.33
2019-05-21T05:55:08.776Z,35.83
2019-05-21T05:57:36.450Z,35.30
2019-05-21T06:00:06.277Z,36.40
2019-05-21T06:02:33.646Z,31.20
2019-05-21T06:05:00.934Z,34.00
2019-05-21T06:07:28.410Z,33.97
2019-05-21T06:09:55.979Z,34.20
2019-05-21T06:12:23.435Z,37.93
2019-05-21T06:14:51.030Z,28.93
2019-05-21T06:17:21.132Z,29.37
2019-05-21T06:19:49.719Z,30.70
2019-05-21T06:22:17.471Z,33.87
2019-05-21T06:24:45.074Z,30.90
2019-05-21T06:27:12.639Z,33.60
2019-05-21T06:29:40.178Z,32.83
2019-05-21T06:32:08.281Z,37.77
2019-05-21T06:34:35.874Z,30.60
2019-05-21T06:37:03.726Z,34.17
2019-05-21T06:39:31.385Z,30.93
2019-05-21T06:41:58.967Z,32.30
2019-05-21T06:44:26.407Z,29.33
2019-05-21T06:46:53.952Z,30.50
2019-05-21T06:49:21.510Z,32.03
2019-05-21T06:51:49.154Z,31.17
2019-05-21T06:54:16.744Z,30.10
2019-05-21T06:56:45.309Z,31.70
2019-05-21T06:59:12.715Z,29.20
2019-05-21T07:01:40.228Z,30.00
2019-05-21T07:04:10.495Z,28.20
2019-05-21T07:06:38.111Z,29.30
2019-05-21T07:09:05.921Z,28.00
2019-05-21T07:11:33.797Z,27.10
2019-05-21T07:14:01.358Z,29.33
2019-05-21T07:16:28.841Z,30.03
2019-05-21T07:18:56.326Z,25.13
2019-05-21T07:21:24.302Z,26.10
2019-05-21T07:23:52.829Z,23.60
2019-05-21T07:26:20.494Z,28.07
2019-05-21T07:28:48.120Z,30.50
2019-05-21T07:31:17.512Z,31.47
2019-05-21T07:33:44.965Z,26.97
2019-05-21T07:36:14.084Z,26.70
2019-05-21T07:38:52.589Z,32.23
2019-05-21T07:41:11.508Z,36.13
2019-05-21T07:43:39.272Z,29.00
2019-05-21T07:46:09.668Z,29.80
2019-05-21T07:48:37.113Z,36.20
2019-05-21T07:51:04.820Z,31.00
2019-05-21T07:53:32.377Z,33.77
2019-05-21T07:56:00.017Z,34.30
2019-05-21T07:58:27.456Z,33.20
2019-05-21T08:00:55.177Z,34.23
2019-05-21T08:03:22.648Z,30.33
2019-05-21T08:05:50.406Z,26.13
2019-05-21T08:08:18.039Z,27.30
2019-05-21T08:10:45.626Z,27.30
2019-05-21T08:13:13.303Z,28.33
2019-05-21T08:15:40.693Z,26.73
2019-05-21T08:18:08.607Z,24.63
2019-05-21T08:20:36.168Z,23.93
2019-05-21T08:23:03.755Z,28.07
2019-05-21T08:25:31.308Z,23.03
2019-05-21T08:27:58.912Z,24.07
2019-05-21T08:30:26.412Z,21.20
2019-05-21T08:32:53.945Z,26.10
2019-05-21T08:35:21.331Z,24.50
2019-05-21T08:37:48.869Z,20.70
2019-05-21T08:40:17.073Z,19.03
2019-05-21T08:42:44.395Z,19.07
2019-05-21T08:45:13.058Z,16.77
2019-05-21T08:47:40.669Z,18.23
2019-05-21T08:50:09.410Z,16.80
2019-05-21T08:52:36.853Z,14.97
2019-05-21T08:55:04.466Z,16.17
2019-05-21T08:57:31.917Z,17.27
2019-05-21T08:59:59.582Z,15.20
2019-05-21T09:02:27.029Z,15.57
2019-05-21T09:04:54.534Z,15.97
2019-05-21T09:07:22.115Z,16.27
2019-05-21T09:09:51.634Z,16.87
2019-05-21T09:12:19.006Z,16.63
2019-05-21T09:14:46.580Z,16.43
2019-05-21T09:17:14.182Z,17.07
2019-05-21T09:19:41.543Z,17.30
2019-05-21T09:22:10.543Z,18.20
2019-05-21T09:24:39.228Z,17.13
2019-05-21T09:27:06.936Z,16.93
2019-05-21T09:29:34.594Z,17.70
2019-05-21T09:32:02.258Z,16.80
2019-05-21T09:34:47.137Z,16.23
2019-05-21T09:36:59.144Z,18.27
2019-05-21T09:39:26.838Z,17.50
2019-05-21T09:41:54.290Z,16.17
2019-05-21T09:44:21.699Z,14.40
2019-05-21T09:46:49.300Z,14.77
2019-05-21T09:49:16.874Z,18.67
2019-05-21T09:51:44.383Z,16.10
2019-05-21T09:54:11.933Z,15.47
2019-05-21T09:56:39.673Z,18.33
2019-05-21T09:59:34.395Z,17.00
2019-05-21T10:02:08.852Z,18.10
2019-05-21T10:04:36.359Z,18.90
2019-05-21T10:07:03.782Z,18.27
2019-05-21T10:09:31.290Z,19.37
2019-05-21T10:11:59.710Z,21.70
2019-05-21T10:14:27.101Z,23.80
2019-05-21T10:16:55.844Z,23.00
2019-05-21T10:19:24.130Z,20.40
2019-05-21T10:21:51.686Z,27.60
2019-05-21T10:24:19.270Z,25.63
2019-05-21T10:26:46.714Z,25.50
2019-05-21T10:29:14.349Z,28.93
2019-05-21T10:31:41.817Z,24.13
2019-05-21T10:34:12.957Z,29.23
2019-05-21T10:36:38.779Z,26.47
2019-05-21T10:39:08.477Z,28.43
2019-05-21T10:41:36.156Z,27.57
2019-05-21T10:44:04.171Z,29.80
2019-05-21T10:46:31.634Z,27.50
2019-05-21T10:48:59.184Z,28.37
2019-05-21T10:51:26.741Z,26.70
2019-05-21T10:53:54.412Z,24.47
2019-05-21T10:56:21.915Z,22.43
2019-05-21T10:58:49.475Z,21.33
2019-05-21T11:01:37.627Z,23.10
2019-05-21T11:04:30.664Z,21.37
2019-05-21T11:06:58.308Z,19.13
2019-05-21T11:09:25.824Z,17.93
2019-05-21T11:11:53.542Z,22.37
2019-05-21T11:14:21.142Z,20.73
2019-05-21T11:16:48.723Z,18.67
2019-05-21T11:19:16.055Z,19.70
2019-05-21T11:21:43.580Z,17.40
2019-05-21T11:24:11.562Z,18.70
2019-05-21T11:26:39.242Z,18.50
2019-05-21T11:29:08.077Z,18.00
2019-05-21T11:31:35.676Z,18.17
2019-05-21T11:34:03.360Z,16.07
2019-05-21T11:36:31.022Z,15.93
2019-05-21T11:38:58.561Z,16.70
2019-05-21T11:41:26.348Z,15.03
2019-05-21T11:43:53.875Z,15.20
2019-05-21T11:46:21.522Z,14.83
2019-05-21T11:48:49.102Z,14.33
2019-05-21T11:51:16.883Z,18.80
2019-05-21T11:53:44.407Z,14.33
2019-05-21T11:56:11.889Z,12.30
2019-05-21T11:58:40.134Z,13.83
2019-05-21T12:01:08.442Z,13.57
2019-05-21T12:03:37.069Z,13.00
2019-05-21T12:06:04.560Z,14.07
2019-05-21T12:08:32.127Z,16.27
2019-05-21T12:10:59.521Z,14.63
2019-05-21T12:13:28.358Z,16.50
2019-05-21T12:15:56.931Z,17.07
2019-05-21T12:18:24.701Z,15.70
2019-05-21T12:20:52.107Z,18.07
2019-05-21T12:23:19.585Z,18.27
2019-05-21T12:25:49.008Z,16.90
2019-05-21T12:28:16.484Z,17.93
2019-05-21T12:30:44.210Z,17.40
2019-05-21T12:33:12.073Z,18.27
2019-05-21T12:35:39.471Z,19.70
2019-05-21T12:38:10.198Z,18.37
2019-05-21T12:40:37.681Z,18.07
2019-05-21T12:43:05.328Z,17.67
2019-05-21T12:45:32.995Z,18.50
2019-05-21T12:48:00.653Z,19.27
2019-05-21T12:50:28.154Z,19.63
2019-05-21T12:52:55.789Z,18.60
2019-05-21T12:55:23.416Z,18.97
2019-05-21T12:57:51.092Z,17.60
2019-05-21T13:00:19.090Z,19.10
2019-05-21T13:02:46.756Z,19.33
2019-05-21T13:05:15.664Z,19.17
2019-05-21T13:07:43.406Z,19.50
2019-05-21T13:10:11.065Z,19.63
2019-05-21T13:12:38.764Z,19.67
2019-05-21T13:15:07.910Z,19.57
2019-05-21T13:17:35.661Z,20.73
2019-05-21T13:20:04.748Z,21.53
2019-05-21T13:22:32.514Z,21.40
2019-05-21T13:25:00.182Z,21.27
2019-05-21T13:27:27.732Z,21.43
2019-05-21T13:29:55.351Z,23.63
2019-05-21T13:32:22.915Z,22.73
2019-05-21T13:34:50.633Z,22.43
2019-05-21T13:37:18.648Z,24.17
2019-05-21T13:39:49.969Z,23.17
2019-05-21T13:42:15.600Z,23.40
2019-05-21T13:44:43.246Z,22.97
2019-05-21T13:47:10.827Z,24.23
2019-05-21T13:49:38.479Z,24.07
2019-05-21T13:52:06.019Z,23.13
2019-05-21T13:54:33.457Z,23.00
2019-05-21T13:57:00.934Z,25.63
2019-05-21T13:59:28.698Z,24.07
2019-05-21T14:01:56.476Z,23.23
2019-05-21T14:04:23.920Z,24.17
2019-05-21T14:06:51.410Z,24.50
2019-05-21T14:09:18.936Z,26.10
2019-05-21T14:11:46.690Z,23.80
2019-05-21T14:14:14.254Z,24.93
2019-05-21T14:16:41.859Z,25.20
2019-05-21T14:19:09.621Z,25.37
2019-05-21T14:21:37.114Z,24.93
2019-05-21T14:24:04.643Z,27.53
2019-05-21T14:26:32.066Z,25.23
2019-05-21T14:28:59.567Z,26.00
2019-05-21T14:31:28.198Z,28.27
2019-05-21T14:33:55.649Z,26.73
2019-05-21T14:36:23.133Z,27.77
2019-05-21T14:38:50.622Z,27.73
2019-05-21T14:41:18.152Z,29.33
2019-05-21T14:43:45.607Z,28.27
2019-05-21T14:46:13.147Z,27.70
2019-05-21T14:48:40.856Z,30.10
2019-05-21T14:51:13.410Z,30.97
2019-05-21T14:53:40.040Z,26.97
2019-05-21T14:58:44.794Z,27.23
2019-05-21T15:01:12.323Z,28.10
2019-05-21T15:03:39.898Z,28.67
2019-05-21T15:06:10.168Z,28.87
2019-05-21T15:08:37.849Z,30.07
2019-05-21T15:11:05.497Z,27.63
2019-05-21T15:13:33.245Z,30.50
2019-05-21T15:16:00.852Z,28.37
2019-05-21T15:18:28.658Z,28.67
2019-05-21T15:21:01.437Z,27.80
2019-05-21T15:23:29.378Z,29.60
2019-05-21T15:25:57.079Z,27.27
2019-05-21T15:28:24.779Z,27.63
2019-05-21T15:30:52.521Z,28.57
2019-05-21T15:33:22.109Z,28.03
2019-05-21T15:35:49.664Z,27.80
2019-05-21T15:38:17.493Z,28.00
2019-05-21T15:40:45.160Z,30.70
2019-05-21T15:43:12.823Z,30.10
2019-05-21T15:45:40.477Z,28.77
2019-05-21T15:48:10.398Z,27.77
2019-05-21T15:50:38.127Z,28.67
2019-05-21T15:53:08.235Z,27.83
2019-05-21T15:55:35.966Z,25.60
2019-05-21T15:58:03.602Z,25.73
2019-05-21T16:00:31.244Z,26.63
2019-05-21T16:03:08.815Z,27.57
2019-05-21T16:05:36.525Z,27.50
2019-05-21T16:08:04.324Z,31.17
2019-05-21T16:10:32.351Z,27.23
2019-05-21T16:12:59.906Z,25.77
2019-05-21T16:15:33.139Z,25.23
2019-05-21T16:18:00.675Z,27.10
2019-05-21T16:20:28.251Z,24.50
2019-05-21T16:22:56.026Z,24.53
2019-05-21T16:25:24.494Z,24.60
2019-05-21T16:27:52.029Z,28.07
2019-05-21T16:30:19.972Z,24.93
2019-05-21T16:32:47.946Z,25.90
2019-05-21T16:35:15.747Z,23.50
2019-05-21T16:37:44.386Z,25.80
2019-05-21T16:40:12.381Z,26.13
2019-05-21T16:42:40.041Z,24.43
2019-05-21T16:45:10.851Z,23.20
2019-05-21T16:47:45.526Z,24.10
2019-05-21T16:50:09.558Z,23.20
2019-05-21T16:52:37.480Z,28.63
2019-05-21T16:55:05.603Z,25.47
2019-05-21T16:57:33.227Z,25.00
2019-05-21T17:00:01.184Z,24.80
2019-05-21T17:02:28.965Z,24.77
2019-05-21T17:04:56.788Z,28.70
2019-05-21T17:07:24.845Z,27.10
2019-05-21T17:09:52.447Z,26.33
2019-05-21T17:12:21.223Z,29.43
2019-05-21T17:14:50.042Z,24.50
2019-05-21T17:17:17.707Z,23.73
2019-05-21T17:19:45.233Z,24.00
2019-05-21T17:22:15.670Z,25.40
2019-05-21T17:24:43.344Z,23.03
2019-05-21T17:27:11.124Z,21.30
2019-05-21T17:29:40.884Z,21.77
2019-05-21T17:32:08.965Z,21.23
2019-05-21T17:34:36.675Z,20.53
2019-05-21T17:37:04.498Z,19.80
2019-05-21T17:39:32.476Z,21.23
2019-05-21T17:42:13.277Z,19.13
2019-05-21T17:44:29.766Z,21.17
2019-05-21T17:46:57.486Z,20.03
2019-05-21T17:49:25.169Z,22.00
2019-05-21T17:51:52.939Z,23.77
2019-05-21T17:54:20.634Z,23.37
2019-05-21T17:56:48.447Z,22.70
2019-05-21T17:59:16.200Z,23.73
2019-05-21T18:01:43.836Z,27.87
2019-05-21T18:04:11.565Z,24.80
2019-05-21T18:06:40.303Z,22.70
2019-05-21T18:09:12.973Z,21.90
2019-05-21T18:11:40.687Z,23.07
2019-05-21T18:14:09.623Z,22.20
2019-05-21T18:16:37.331Z,23.00
2019-05-21T18:19:08.534Z,22.20
2019-05-21T18:21:36.398Z,23.67
2019-05-21T18:24:05.062Z,23.57
2019-05-21T18:26:33.233Z,22.73
2019-05-21T18:29:00.794Z,22.63
2019-05-21T18:31:28.614Z,23.33
2019-05-21T18:33:56.259Z,23.00
2019-05-21T18:36:23.914Z,21.50
2019-05-21T18:38:51.898Z,23.57
2019-05-21T18:41:19.601Z,23.97
2019-05-21T18:43:50.031Z,22.57
2019-05-21T18:46:17.135Z,25.23
2019-05-21T18:48:45.110Z,23.17
2019-05-21T18:51:12.896Z,23.10
2019-05-21T18:53:40.827Z,22.83
2019-05-21T18:56:08.684Z,22.23
2019-05-21T18:58:36.476Z,24.47
2019-05-21T19:01:04.171Z,26.00
2019-05-21T19:03:32.066Z,23.60
2019-05-21T19:05:59.697Z,25.10
2019-05-21T19:08:27.556Z,24.00
2019-05-21T19:10:55.190Z,23.60
2019-05-21T19:13:25.880Z,23.90
2019-05-21T19:15:54.188Z,25.97
2019-05-21T19:18:21.679Z,25.47
2019-05-21T19:20:50.205Z,26.47
2019-05-21T19:23:17.974Z,26.47
2019-05-21T19:25:45.699Z,25.03
2019-05-21T19:28:13.354Z,27.80
2019-05-21T19:30:40.972Z,26.70
2019-05-21T19:33:09.069Z,27.93
2019-05-21T19:35:37.900Z,26.83
2019-05-21T19:38:05.617Z,26.53
2019-05-21T19:40:33.286Z,27.83
2019-05-21T19:43:00.931Z,28.47
2019-05-21T19:45:31.333Z,27.60
2019-05-21T19:47:58.299Z,27.53
2019-05-21T19:50:25.976Z,28.17
2019-05-21T19:52:53.422Z,27.80
2019-05-21T19:55:21.447Z,28.90
2019-05-21T19:57:49.369Z,27.07
2019-05-21T20:00:20.311Z,31.60
2019-05-21T20:02:48.735Z,28.30
2019-05-21T20:05:16.464Z,27.73
2019-05-21T20:07:44.290Z,27.83
2019-05-21T20:10:13.085Z,25.33
2019-05-21T20:12:41.158Z,28.47
2019-05-21T20:15:09.122Z,27.70
2019-05-21T20:17:40.681Z,27.17
2019-05-21T20:20:09.770Z,28.37
2019-05-21T20:22:39.259Z,27.70
2019-05-21T20:25:07.124Z,30.83
2019-05-21T20:27:35.682Z,27.00
2019-05-21T20:30:12.556Z,30.97
2019-05-21T20:32:36.315Z,28.20
2019-05-21T20:35:05.535Z,29.37
2019-05-21T20:37:33.918Z,32.10
2019-05-21T20:40:08.647Z,31.00
2019-05-21T20:42:39.895Z,28.37
2019-05-21T20:45:10.763Z,26.80
2019-05-21T20:47:38.763Z,27.70
2019-05-21T20:50:11.792Z,28.30
2019-05-21T20:52:38.708Z,29.27
2019-05-21T20:55:07.579Z,27.97
2019-05-21T20:57:35.760Z,29.07
2019-05-21T21:00:04.588Z,28.30
2019-05-21T21:02:34.908Z,28.00
2019-05-21T21:05:02.710Z,28.27
2019-05-21T21:07:33.260Z,30.03
2019-05-21T21:10:00.995Z,30.53
2019-05-21T21:12:29.228Z,30.17
2019-05-21T21:14:57.363Z,30.43
2019-05-21T21:17:27.403Z,32.13
2019-05-21T21:19:58.495Z,30.80
2019-05-21T21:22:28.008Z,28.90
2019-05-21T21:24:55.491Z,28.90
2019-05-21T21:27:24.439Z,29.53
2019-05-21T21:29:51.895Z,30.37
2019-05-21T21:32:20.036Z,27.73
2019-05-21T21:34:48.214Z,26.60
2019-05-21T21:37:16.093Z,27.07
2019-05-21T21:39:43.674Z,26.73
2019-05-21T21:42:11.324Z,26.03
2019-05-21T21:44:39.151Z,28.30
2019-05-21T21:47:06.968Z,29.93
2019-05-21T21:49:35.892Z,29.67
2019-05-21T21:52:05.710Z,32.23
2019-05-21T21:54:33.975Z,44.70
2019-05-21T21:57:01.688Z,31.47
2019-05-21T21:59:29.450Z,34.07
2019-05-21T22:02:04.871Z,30.33
2019-05-21T22:04:35.188Z,36.10
2019-05-21T22:07:05.265Z,31.60
2019-05-21T22:09:34.745Z,33.17
2019-05-21T22:12:05.177Z,32.83
2019-05-21T22:14:49.614Z,29.80
2019-05-21T22:17:06.252Z,34.13
2019-05-21T22:19:34.154Z,36.33
2019-05-21T22:22:02.789Z,38.10
2019-05-21T22:24:30.633Z,33.63
2019-05-21T22:26:58.799Z,33.80
2019-05-21T22:29:27.930Z,35.17
2019-05-21T22:31:55.414Z,33.67
2019-05-21T22:34:24.478Z,33.73
2019-05-21T22:36:52.217Z,36.20
2019-05-21T22:39:25.757Z,34.13
2019-05-21T22:41:53.880Z,35.53
2019-05-21T22:44:21.545Z,35.60
2019-05-21T22:46:49.712Z,35.10
2019-05-21T22:49:17.371Z,33.30
2019-05-21T22:51:44.999Z,36.13
2019-05-21T22:54:12.755Z,36.87
2019-05-21T22:56:40.381Z,34.70
2019-05-21T22:59:07.995Z,37.53
2019-05-21T23:01:37.249Z,42.50
2019-05-21T23:04:05.412Z,34.73
2019-05-21T23:06:33.171Z,35.13
2019-05-21T23:09:00.850Z,33.33
2019-05-21T23:11:29.211Z,40.40
2019-05-21T23:13:56.826Z,36.90
2019-05-21T23:16:25.745Z,39.73
2019-05-21T23:19:12.534Z,38.70
2019-05-21T23:21:42.018Z,35.20
2019-05-21T23:24:16.265Z,40.17
2019-05-21T23:26:44.418Z,39.60
2019-05-21T23:29:12.699Z,37.37
2019-05-21T23:31:40.339Z,34.90
2019-05-21T23:34:08.963Z,41.83
2019-05-21T23:36:38.647Z,38.10
2019-05-21T23:39:10.801Z,32.27
2019-05-21T23:41:38.885Z,34.67
2019-05-21T23:44:06.534Z,32.10
2019-05-21T23:46:34.030Z,28.03
2019-05-21T23:49:01.592Z,29.00
2019-05-21T23:51:29.680Z,26.00
2019-05-21T23:53:57.883Z,26.63
2019-05-21T23:56:25.568Z,27.40
2019-05-21T23:58:53.285Z,23.90
